createdAt,value
2023-01-17T00:02:15.197Z,57.39
2023-01-17T00:05:01.650Z,59.36
2023-01-17T00:07:47.645Z,60.22
2023-01-17T00:10:18.486Z,65.37
2023-01-17T00:13:01.872Z,70.21
2023-01-17T00:15:31.164Z,68.93
2023-01-17T00:17:59.498Z,66.59
2023-01-17T00:20:48.449Z,64.80
2023-01-17T00:23:38.222Z,64.19
2023-01-17T00:26:26.482Z,63.90
2023-01-17T00:28:53.762Z,63.32
2023-01-17T00:31:21.205Z,62.80
2023-01-17T00:33:48.162Z,62.42
2023-01-17T00:36:15.282Z,62.11
2023-01-17T00:38:42.642Z,61.64
2023-01-17T00:41:15.142Z,61.07
2023-01-17T00:44:01.162Z,60.70
2023-01-17T00:46:46.870Z,60.26
2023-01-17T00:49:32.642Z,59.84
2023-01-17T00:52:18.892Z,57.41
2023-01-17T00:55:04.310Z,55.74
2023-01-17T00:57:50.186Z,56.51
2023-01-17T01:00:39.327Z,57.35
2023-01-17T01:03:30.758Z,58.30
2023-01-17T01:06:16.860Z,59.29
2023-01-17T01:09:02.957Z,60.19
2023-01-17T01:11:49.208Z,61.11
2023-01-17T01:14:35.682Z,64.60
2023-01-17T01:17:22.081Z,69.92
2023-01-17T01:20:08.269Z,70.18
2023-01-17T01:22:54.227Z,68.89
2023-01-17T01:25:40.527Z,67.79
2023-01-17T01:28:30.894Z,66.46
2023-01-17T01:31:21.305Z,65.12
2023-01-17T01:33:48.839Z,63.70
2023-01-17T01:36:15.809Z,62.89
2023-01-17T01:38:43.126Z,62.12
2023-01-17T01:41:10.242Z,61.50
2023-01-17T01:43:44.412Z,60.63
2023-01-17T01:46:37.045Z,60.16
2023-01-17T01:49:12.506Z,57.16
2023-01-17T01:51:43.644Z,55.13
2023-01-17T01:54:34.148Z,56.28
2023-01-17T01:57:06.101Z,57.74
2023-01-17T01:59:35.168Z,58.91
2023-01-17T02:02:02.864Z,59.83
2023-01-17T02:04:29.898Z,61.23
2023-01-17T02:07:13.602Z,64.86
2023-01-17T02:09:41.442Z,70.63
2023-01-17T02:12:10.516Z,70.14
2023-01-17T02:14:37.740Z,67.91
2023-01-17T02:17:16.151Z,66.36
2023-01-17T02:20:02.066Z,64.83
2023-01-17T02:23:05.022Z,63.52
2023-01-17T02:25:43.414Z,62.24
2023-01-17T02:28:26.805Z,61.14
2023-01-17T02:31:05.359Z,60.85
2023-01-17T02:33:53.690Z,60.43
2023-01-17T02:36:26.569Z,60.04
2023-01-17T02:39:05.851Z,57.43
2023-01-17T02:41:46.295Z,55.00
2023-01-17T02:44:18.565Z,55.13
2023-01-17T02:47:28.125Z,56.71
2023-01-17T02:50:01.777Z,58.19
2023-01-17T02:52:50.354Z,61.70
2023-01-17T02:55:42.208Z,64.87
2023-01-17T02:58:24.906Z,69.54
2023-01-17T03:01:07.904Z,69.20
2023-01-17T03:04:10.328Z,67.70
2023-01-17T03:06:45.085Z,65.76
2023-01-17T03:09:15.079Z,64.17
2023-01-17T03:11:43.299Z,63.11
2023-01-17T03:14:10.341Z,62.28
2023-01-17T03:16:37.326Z,61.73
2023-01-17T03:19:04.841Z,60.95
2023-01-17T03:21:31.803Z,60.69
2023-01-17T03:23:58.746Z,60.63
2023-01-17T03:26:25.683Z,60.47
2023-01-17T03:28:52.644Z,59.92
2023-01-17T03:31:22.358Z,58.10
2023-01-17T03:33:49.371Z,55.37
2023-01-17T03:36:16.444Z,55.38
2023-01-17T03:38:43.365Z,56.68
2023-01-17T03:41:10.332Z,57.69
2023-01-17T03:43:37.503Z,58.83
2023-01-17T03:46:07.432Z,61.55
2023-01-17T03:48:34.727Z,66.15
2023-01-17T03:51:01.763Z,69.80
2023-01-17T03:53:28.723Z,70.35
2023-01-17T03:55:55.545Z,68.70
2023-01-17T03:58:22.374Z,66.65
2023-01-17T04:00:49.388Z,65.12
2023-01-17T04:03:16.366Z,63.93
2023-01-17T04:05:43.208Z,62.71
2023-01-17T04:08:10.164Z,62.14
2023-01-17T04:10:36.993Z,61.40
2023-01-17T04:13:03.970Z,60.66
2023-01-17T04:15:31.281Z,60.23
2023-01-17T04:17:58.430Z,57.81
2023-01-17T04:20:37.798Z,54.89
2023-01-17T04:23:05.912Z,54.45
2023-01-17T04:25:33.390Z,55.89
2023-01-17T04:28:02.166Z,57.65
2023-01-17T04:30:29.991Z,59.16
2023-01-17T04:32:57.907Z,61.09
2023-01-17T04:35:25.464Z,65.12
2023-01-17T04:37:53.254Z,69.81
2023-01-17T04:40:20.685Z,71.20
2023-01-17T04:42:48.720Z,69.64
2023-01-17T04:45:16.381Z,66.84
2023-01-17T04:47:43.303Z,64.49
2023-01-17T04:50:11.622Z,62.51
2023-01-17T04:52:38.609Z,60.23
2023-01-17T04:55:06.876Z,56.79
2023-01-17T04:57:33.745Z,54.28
2023-01-17T05:00:00.633Z,54.66
2023-01-17T05:02:27.496Z,55.77
2023-01-17T05:04:54.856Z,56.98
2023-01-17T05:07:21.764Z,57.93
2023-01-17T05:09:48.723Z,58.50
2023-01-17T05:12:15.684Z,59.60
2023-01-17T05:14:42.690Z,60.67
2023-01-17T05:17:20.953Z,64.17
2023-01-17T05:19:48.151Z,71.43
2023-01-17T05:22:15.671Z,72.20
2023-01-17T05:24:47.225Z,70.31
2023-01-17T05:27:15.454Z,66.66
2023-01-17T05:29:42.677Z,64.69
2023-01-17T05:32:10.096Z,62.84
2023-01-17T05:34:37.443Z,61.13
2023-01-17T05:37:04.537Z,60.64
2023-01-17T05:39:31.469Z,60.65
2023-01-17T05:41:59.949Z,57.40
2023-01-17T05:44:28.356Z,54.45
2023-01-17T05:46:56.601Z,55.30
2023-01-17T05:49:24.651Z,56.75
2023-01-17T05:51:54.728Z,57.87
2023-01-17T05:54:22.407Z,58.53
2023-01-17T05:56:49.535Z,59.43
2023-01-17T05:59:20.545Z,63.34
2023-01-17T06:01:54.849Z,68.12
2023-01-17T06:04:22.250Z,66.99
2023-01-17T06:06:49.362Z,66.29
2023-01-17T06:09:16.401Z,64.28
2023-01-17T06:11:43.635Z,63.44
2023-01-17T06:14:10.688Z,62.46
2023-01-17T06:16:37.733Z,61.81
2023-01-17T06:19:04.683Z,61.14
2023-01-17T06:21:31.771Z,60.29
2023-01-17T06:23:58.864Z,59.69
2023-01-17T06:26:25.843Z,57.12
2023-01-17T06:28:53.160Z,54.78
2023-01-17T06:31:20.252Z,55.09
2023-01-17T06:33:47.610Z,55.83
2023-01-17T06:36:14.607Z,56.80
2023-01-17T06:38:41.557Z,57.66
2023-01-17T06:41:10.229Z,58.75
2023-01-17T06:43:37.495Z,59.53
2023-01-17T06:46:05.069Z,60.55
2023-01-17T06:48:32.289Z,63.71
2023-01-17T06:50:59.333Z,71.14
2023-01-17T06:53:26.367Z,71.81
2023-01-17T06:55:58.107Z,69.21
2023-01-17T06:58:25.292Z,67.05
2023-01-17T07:00:52.763Z,65.17
2023-01-17T07:03:25.622Z,63.64
2023-01-17T07:05:53.586Z,62.49
2023-01-17T07:08:20.955Z,61.52
2023-01-17T07:10:49.127Z,60.87
2023-01-17T07:13:16.774Z,60.52
2023-01-17T07:15:44.173Z,59.83
2023-01-17T07:18:11.273Z,57.07
2023-01-17T07:20:38.922Z,54.74
2023-01-17T07:23:06.603Z,55.25
2023-01-17T07:25:34.170Z,56.50
2023-01-17T07:28:01.197Z,57.46
2023-01-17T07:30:28.490Z,58.41
2023-01-17T07:32:56.748Z,59.38
2023-01-17T07:35:26.978Z,60.85
2023-01-17T07:37:55.145Z,64.79
2023-01-17T07:40:23.061Z,70.98
2023-01-17T07:42:50.483Z,69.89
2023-01-17T07:45:17.584Z,68.10
2023-01-17T07:47:45.052Z,66.47
2023-01-17T07:50:13.967Z,64.69
2023-01-17T07:52:41.126Z,63.18
2023-01-17T07:55:09.336Z,62.12
2023-01-17T07:57:36.645Z,61.26
2023-01-17T08:00:05.359Z,60.41
2023-01-17T08:02:32.618Z,60.04
2023-01-17T08:04:59.844Z,57.78
2023-01-17T08:07:26.967Z,55.00
2023-01-17T08:09:55.143Z,56.05
2023-01-17T08:12:22.139Z,57.85
2023-01-17T08:14:49.449Z,58.46
2023-01-17T08:17:17.460Z,60.42
2023-01-17T08:19:45.405Z,65.05
2023-01-17T08:22:12.750Z,70.75
2023-01-17T08:24:39.739Z,68.60
2023-01-17T08:27:07.207Z,65.94
2023-01-17T08:29:34.189Z,64.05
2023-01-17T08:32:01.210Z,62.86
2023-01-17T08:34:28.378Z,61.87
2023-01-17T08:36:55.772Z,61.17
2023-01-17T08:39:22.687Z,60.41
2023-01-17T08:41:49.937Z,59.89
2023-01-17T08:44:16.911Z,57.22
2023-01-17T08:46:45.193Z,54.67
2023-01-17T08:49:12.741Z,55.29
2023-01-17T08:51:40.507Z,57.35
2023-01-17T08:54:07.799Z,61.02
2023-01-17T08:56:35.862Z,65.52
2023-01-17T08:59:03.514Z,68.49
2023-01-17T09:01:30.737Z,66.42
2023-01-17T09:03:57.940Z,64.01
2023-01-17T09:06:24.752Z,62.80
2023-01-17T09:08:52.551Z,61.73
2023-01-17T09:11:19.808Z,61.32
2023-01-17T09:13:46.870Z,59.98
2023-01-17T09:16:13.985Z,57.37
2023-01-17T09:18:41.132Z,55.05
2023-01-17T09:21:17.041Z,55.19
2023-01-17T09:23:45.087Z,56.60
2023-01-17T09:26:32.711Z,58.22
2023-01-17T09:28:59.755Z,60.68
2023-01-17T09:31:28.135Z,65.23
2023-01-17T09:33:56.901Z,69.43
2023-01-17T09:36:29.106Z,66.85
2023-01-17T09:38:58.463Z,64.77
2023-01-17T09:41:30.815Z,63.15
2023-01-17T09:44:06.600Z,61.87
2023-01-17T09:46:40.609Z,60.77
2023-01-17T09:49:13.488Z,57.59
2023-01-17T09:51:42.569Z,55.94
2023-01-17T09:54:24.254Z,56.96
2023-01-17T09:57:18.143Z,57.24
2023-01-17T10:00:04.179Z,57.98
2023-01-17T10:03:11.168Z,60.01
2023-01-17T10:05:58.815Z,62.73
2023-01-17T10:08:44.936Z,66.34
2023-01-17T10:11:30.207Z,62.00
2023-01-17T10:14:03.221Z,57.11
2023-01-17T10:16:48.151Z,53.87
2023-01-17T10:19:32.075Z,53.22
2023-01-17T10:22:09.270Z,55.04
2023-01-17T10:25:05.015Z,56.15
2023-01-17T10:28:00.232Z,53.66
2023-01-17T10:30:43.882Z,53.31
2023-01-17T10:33:21.780Z,54.08
2023-01-17T10:35:54.084Z,51.87
2023-01-17T10:38:32.954Z,54.66
2023-01-17T10:41:06.264Z,54.02
2023-01-17T10:43:45.936Z,56.70
2023-01-17T10:46:20.446Z,55.91
2023-01-17T10:48:50.861Z,56.82
2023-01-17T10:51:50.290Z,57.46
2023-01-17T10:54:45.601Z,58.27
2023-01-17T10:57:25.997Z,52.76
2023-01-17T10:59:54.498Z,55.71
2023-01-17T11:02:30.376Z,55.04
2023-01-17T11:05:03.912Z,57.72
2023-01-17T11:07:31.540Z,52.28
2023-01-17T11:09:59.669Z,51.42
2023-01-17T11:12:34.054Z,50.31
2023-01-17T11:15:27.671Z,49.36
2023-01-17T11:18:17.262Z,50.85
2023-01-17T11:20:45.279Z,49.82
2023-01-17T11:23:27.116Z,48.14
2023-01-17T11:26:03.052Z,47.92
2023-01-17T11:28:32.745Z,47.06
2023-01-17T11:31:09.437Z,46.79
2023-01-17T11:33:45.642Z,49.80
2023-01-17T11:36:32.154Z,45.46
2023-01-17T11:39:04.986Z,44.68
2023-01-17T11:41:41.543Z,44.41
2023-01-17T11:44:22.065Z,44.77
2023-01-17T11:47:07.643Z,43.61
2023-01-17T11:49:34.593Z,43.43
2023-01-17T11:52:08.195Z,43.74
2023-01-17T11:54:40.850Z,43.99
2023-01-17T11:57:21.541Z,45.57
2023-01-17T11:59:49.096Z,46.91
2023-01-17T12:03:07.066Z,45.77
2023-01-17T12:06:08.899Z,42.67
2023-01-17T12:08:39.634Z,42.87
2023-01-17T12:11:23.343Z,43.03
2023-01-17T12:14:23.324Z,43.30
2023-01-17T12:16:50.406Z,42.16
2023-01-17T12:19:54.978Z,40.84
2023-01-17T12:22:48.383Z,41.84
2023-01-17T12:25:28.775Z,39.52
2023-01-17T12:28:35.222Z,38.38
2023-01-17T12:31:19.720Z,40.66
2023-01-17T12:33:55.860Z,38.14
2023-01-17T12:36:31.339Z,38.63
2023-01-17T12:39:03.803Z,37.86
2023-01-17T12:41:40.295Z,38.59
2023-01-17T12:44:11.871Z,40.01
2023-01-17T12:46:49.292Z,39.77
2023-01-17T12:49:35.299Z,37.92
2023-01-17T12:52:34.267Z,37.87
2023-01-17T12:55:12.350Z,39.27
2023-01-17T12:57:45.681Z,38.62
2023-01-17T13:00:25.740Z,37.54
2023-01-17T13:03:27.866Z,37.64
2023-01-17T13:05:58.076Z,37.56
2023-01-17T13:08:47.065Z,38.52
2023-01-17T13:11:53.482Z,37.90
2023-01-17T13:14:20.912Z,38.32
2023-01-17T13:16:59.171Z,37.60
2023-01-17T13:20:01.943Z,37.81
2023-01-17T13:22:30.740Z,39.33
2023-01-17T13:25:09.386Z,39.04
2023-01-17T13:28:03.483Z,38.87
2023-01-17T13:30:43.769Z,38.79
2023-01-17T13:34:07.740Z,39.94
2023-01-17T13:36:50.916Z,40.31
2023-01-17T13:39:42.979Z,40.04
2023-01-17T13:42:18.993Z,39.86
2023-01-17T13:44:46.938Z,40.22
2023-01-17T13:47:19.701Z,41.73
2023-01-17T13:49:50.098Z,42.85
2023-01-17T13:52:19.909Z,42.84
2023-01-17T13:54:53.958Z,44.08
2023-01-17T13:57:28.536Z,44.54
2023-01-17T13:59:58.321Z,45.18
2023-01-17T14:02:38.787Z,45.67
2023-01-17T14:05:10.701Z,45.95
2023-01-17T14:07:48.309Z,46.60
2023-01-17T14:10:31.598Z,46.69
2023-01-17T14:12:59.598Z,46.95
2023-01-17T14:15:30.229Z,47.34
2023-01-17T14:18:06.473Z,47.71
2023-01-17T14:20:43.276Z,47.93
2023-01-17T14:23:34.217Z,48.35
2023-01-17T14:26:19.979Z,48.44
2023-01-17T14:28:47.297Z,48.62
2023-01-17T14:31:17.672Z,49.13
2023-01-17T14:33:45.070Z,49.59
2023-01-17T14:36:25.793Z,49.65
2023-01-17T14:38:53.101Z,49.16
2023-01-17T14:41:26.625Z,50.26
2023-01-17T14:43:55.204Z,49.59
2023-01-17T14:46:33.132Z,50.41
2023-01-17T14:49:04.333Z,50.44
2023-01-17T14:51:35.519Z,50.94
2023-01-17T14:54:06.737Z,50.75
2023-01-17T14:56:34.485Z,50.86
2023-01-17T14:59:17.684Z,51.23
2023-01-17T15:02:06.117Z,51.46
2023-01-17T15:04:40.015Z,51.31
2023-01-17T15:07:08.157Z,52.21
2023-01-17T15:09:37.858Z,51.81
2023-01-17T15:12:08.723Z,52.76
2023-01-17T15:14:40.486Z,52.80
2023-01-17T15:17:24.925Z,53.12
2023-01-17T15:20:15.927Z,53.20
2023-01-17T15:22:43.771Z,53.09
2023-01-17T15:25:13.027Z,53.85
2023-01-17T15:27:41.529Z,53.14
2023-01-17T15:30:13.721Z,54.32
2023-01-17T15:32:40.800Z,54.13
2023-01-17T15:35:18.298Z,54.28
2023-01-17T15:37:45.454Z,54.34
2023-01-17T15:40:20.533Z,54.34
2023-01-17T15:42:51.081Z,54.91
2023-01-17T15:45:28.330Z,55.52
2023-01-17T15:47:59.547Z,55.02
2023-01-17T15:50:31.238Z,55.40
2023-01-17T15:53:07.242Z,56.74
2023-01-17T15:55:53.749Z,57.09
2023-01-17T15:58:35.136Z,56.69
2023-01-17T16:01:02.743Z,55.80
2023-01-17T16:03:31.252Z,56.74
2023-01-17T16:06:01.018Z,57.11
2023-01-17T16:08:31.416Z,57.56
2023-01-17T16:11:06.426Z,57.63
2023-01-17T16:13:38.850Z,57.76
2023-01-17T16:16:19.619Z,57.69
2023-01-17T16:18:48.942Z,57.67
2023-01-17T16:21:22.964Z,58.33
2023-01-17T16:23:50.367Z,58.02
2023-01-17T16:26:17.770Z,59.18
2023-01-17T16:28:46.127Z,59.37
2023-01-17T16:31:19.200Z,59.73
2023-01-17T16:33:50.998Z,59.77
2023-01-17T16:36:18.343Z,59.78
2023-01-17T16:38:48.712Z,59.90
2023-01-17T16:41:15.753Z,59.88
2023-01-17T16:43:43.117Z,60.31
2023-01-17T16:46:12.143Z,60.54
2023-01-17T16:48:39.758Z,60.76
2023-01-17T16:51:08.202Z,61.04
2023-01-17T16:53:36.791Z,61.02
2023-01-17T16:56:12.395Z,61.53
2023-01-17T16:58:40.932Z,61.52
2023-01-17T17:01:16.626Z,61.67
2023-01-17T17:03:44.869Z,61.82
2023-01-17T17:06:18.734Z,65.35
2023-01-17T17:08:59.784Z,74.06
2023-01-17T17:11:34.701Z,72.94
2023-01-17T17:14:02.839Z,68.73
2023-01-17T17:16:30.954Z,64.88
2023-01-17T17:19:00.570Z,62.12
2023-01-17T17:21:30.032Z,57.81
2023-01-17T17:23:59.416Z,53.61
2023-01-17T17:26:37.429Z,52.79
2023-01-17T17:29:06.534Z,52.99
2023-01-17T17:31:34.244Z,53.47
2023-01-17T17:34:02.459Z,53.99
2023-01-17T17:36:32.556Z,54.84
2023-01-17T17:38:59.561Z,55.28
2023-01-17T17:41:35.103Z,56.00
2023-01-17T17:44:04.188Z,56.56
2023-01-17T17:46:32.163Z,57.40
2023-01-17T17:49:00.175Z,57.97
2023-01-17T17:51:30.890Z,58.55
2023-01-17T17:54:06.772Z,58.93
2023-01-17T17:56:35.239Z,59.10
2023-01-17T17:59:04.186Z,59.68
2023-01-17T18:01:31.746Z,60.10
2023-01-17T18:04:03.304Z,60.14
2023-01-17T18:06:31.232Z,60.58
2023-01-17T18:09:13.951Z,64.85
2023-01-17T18:11:43.346Z,71.09
2023-01-17T18:14:13.967Z,69.63
2023-01-17T18:16:43.880Z,66.29
2023-01-17T18:19:23.279Z,64.09
2023-01-17T18:21:51.952Z,61.70
2023-01-17T18:24:24.304Z,58.00
2023-01-17T18:26:52.833Z,54.04
2023-01-17T18:29:22.148Z,53.26
2023-01-17T18:31:50.537Z,53.66
2023-01-17T18:34:23.369Z,54.17
2023-01-17T18:36:52.190Z,54.70
2023-01-17T18:39:22.450Z,55.51
2023-01-17T18:41:50.267Z,56.19
2023-01-17T18:44:19.192Z,56.79
2023-01-17T18:46:48.485Z,57.48
2023-01-17T18:49:21.806Z,58.11
2023-01-17T18:51:51.726Z,58.58
2023-01-17T18:54:20.965Z,59.14
2023-01-17T18:56:48.570Z,59.75
2023-01-17T18:59:18.755Z,60.44
2023-01-17T19:01:46.351Z,60.93
2023-01-17T19:04:15.290Z,61.36
2023-01-17T19:06:44.753Z,64.43
2023-01-17T19:09:13.871Z,70.99
2023-01-17T19:11:43.390Z,71.75
2023-01-17T19:14:12.856Z,69.79
2023-01-17T19:16:42.010Z,66.91
2023-01-17T19:19:12.476Z,64.43
2023-01-17T19:21:40.099Z,62.14
2023-01-17T19:24:07.865Z,60.61
2023-01-17T19:26:35.093Z,56.80
2023-01-17T19:29:05.738Z,53.76
2023-01-17T19:31:39.937Z,53.71
2023-01-17T19:34:07.234Z,54.42
2023-01-17T19:36:36.611Z,54.83
2023-01-17T19:39:06.892Z,55.19
2023-01-17T19:41:36.467Z,55.92
2023-01-17T19:44:07.703Z,56.58
2023-01-17T19:46:36.121Z,57.31
2023-01-17T19:49:04.679Z,58.03
2023-01-17T19:51:44.206Z,58.55
2023-01-17T19:54:16.127Z,58.70
2023-01-17T19:56:43.618Z,59.44
2023-01-17T19:59:13.415Z,60.22
2023-01-17T20:01:40.721Z,63.77
2023-01-17T20:04:08.261Z,69.05
2023-01-17T20:06:36.858Z,68.15
2023-01-17T20:09:05.848Z,64.78
2023-01-17T20:11:33.347Z,62.48
2023-01-17T20:14:01.056Z,58.10
2023-01-17T20:16:30.462Z,55.13
2023-01-17T20:18:59.493Z,54.63
2023-01-17T20:21:28.474Z,55.46
2023-01-17T20:23:58.032Z,55.94
2023-01-17T20:26:31.475Z,56.07
2023-01-17T20:28:59.023Z,56.63
2023-01-17T20:31:27.702Z,57.50
2023-01-17T20:33:56.284Z,57.96
2023-01-17T20:36:26.900Z,58.70
2023-01-17T20:38:54.891Z,59.38
2023-01-17T20:41:29.191Z,59.52
2023-01-17T20:43:58.518Z,60.04
2023-01-17T20:46:27.518Z,60.79
2023-01-17T20:48:56.741Z,63.97
2023-01-17T20:51:26.717Z,70.77
2023-01-17T20:54:03.001Z,70.63
2023-01-17T20:56:34.912Z,67.89
2023-01-17T20:59:07.862Z,65.14
2023-01-17T21:01:35.812Z,63.10
2023-01-17T21:04:03.638Z,61.47
2023-01-17T21:06:31.470Z,57.77
2023-01-17T21:09:00.397Z,54.45
2023-01-17T21:11:28.247Z,54.29
2023-01-17T21:13:56.486Z,54.99
2023-01-17T21:16:24.212Z,55.84
2023-01-17T21:18:52.560Z,56.55
2023-01-17T21:21:22.358Z,57.42
2023-01-17T21:23:51.291Z,57.82
2023-01-17T21:26:19.982Z,58.32
2023-01-17T21:28:48.761Z,58.70
2023-01-17T21:31:23.466Z,59.24
2023-01-17T21:34:11.507Z,59.76
2023-01-17T21:36:40.909Z,60.24
2023-01-17T21:39:16.502Z,61.13
2023-01-17T21:41:46.228Z,64.62
2023-01-17T21:44:20.396Z,71.63
2023-01-17T21:46:48.781Z,71.47
2023-01-17T21:49:16.099Z,68.52
2023-01-17T21:52:04.337Z,65.98
2023-01-17T21:54:50.865Z,63.20
2023-01-17T21:57:39.938Z,60.62
2023-01-17T22:00:12.414Z,54.96
2023-01-17T22:02:40.210Z,52.14
2023-01-17T22:05:09.214Z,52.91
2023-01-17T22:07:36.538Z,53.74
2023-01-17T22:10:03.514Z,54.60
2023-01-17T22:12:30.497Z,55.56
2023-01-17T22:14:57.601Z,56.57
2023-01-17T22:17:24.854Z,57.14
2023-01-17T22:19:51.936Z,57.71
2023-01-17T22:22:19.057Z,58.68
2023-01-17T22:24:46.088Z,59.48
2023-01-17T22:27:14.189Z,60.18
2023-01-17T22:29:41.516Z,60.67
2023-01-17T22:32:08.817Z,61.33
2023-01-17T22:34:36.214Z,65.30
2023-01-17T22:37:04.983Z,73.66
2023-01-17T22:39:32.156Z,73.76
2023-01-17T22:42:00.065Z,69.77
2023-01-17T22:44:27.272Z,66.69
2023-01-17T22:46:54.102Z,65.01
2023-01-17T22:49:23.853Z,62.99
2023-01-17T22:51:51.303Z,61.68
2023-01-17T22:54:19.777Z,61.12
2023-01-17T22:56:47.067Z,60.40
2023-01-17T22:59:14.182Z,57.51
2023-01-17T23:01:41.317Z,55.13
2023-01-17T23:04:12.264Z,55.83
2023-01-17T23:06:40.344Z,56.47
2023-01-17T23:09:11.164Z,56.32
2023-01-17T23:11:39.642Z,57.91
2023-01-17T23:14:23.443Z,59.26
2023-01-17T23:17:21.211Z,60.26
2023-01-17T23:19:51.323Z,61.02
2023-01-17T23:22:23.874Z,64.47
2023-01-17T23:25:02.577Z,72.21
2023-01-17T23:27:57.783Z,71.31
2023-01-17T23:30:34.896Z,68.09
2023-01-17T23:33:11.561Z,66.22
2023-01-17T23:35:42.070Z,63.13
2023-01-17T23:38:27.166Z,62.21
2023-01-17T23:41:22.413Z,61.63
2023-01-17T23:43:53.833Z,61.33
2023-01-17T23:46:21.865Z,59.96
2023-01-17T23:48:49.618Z,57.26
2023-01-17T23:51:16.708Z,54.70
2023-01-17T23:53:43.745Z,55.55
2023-01-17T23:56:15.472Z,57.38
2023-01-17T23:58:42.341Z,59.01
